Time;durP1;ratioP1;P1;durP2;ratioP2;P2;SDS_P1;SDS_P2;PMS_P1;PMS_P2;Temp;Humidity;BMP_temperature;BMP_pressure;BME280_temperature;BME280_humidity;BME280_pressure;Samples;Min_cycle;Max_cycle;Signal;HPM_P1;HPM_P2
2022/12/13 00:01:18;;;;;;;41.40;15.33;;;-3.70;99.90;;;;;;5031163;28;20042;-65
2022/12/13 00:03:44;;;;;;;41.27;17.20;;;-3.70;99.90;;;;;;5029853;28;20032;-64
2022/12/13 00:06:11;;;;;;;34.80;16.53;;;-3.80;99.90;;;;;;5033049;28;20078;-65
2022/12/13 00:08:37;;;;;;;32.10;14.80;;;-3.80;99.90;;;;;;5030646;28;20032;-64
2022/12/13 00:11:05;;;;;;;40.47;15.97;;;-3.80;99.90;;;;;;5030676;28;20029;-64
2022/12/13 00:13:31;;;;;;;45.87;17.43;;;-3.80;99.90;;;;;;5031757;28;20017;-65
2022/12/13 00:16:02;;;;;;;52.33;19.57;;;-4.00;99.90;;;;;;5033069;28;20038;-64
2022/12/13 00:18:29;;;;;;;48.73;18.03;;;-4.10;99.90;;;;;;5011275;28;20029;-64
2022/12/13 00:20:54;;;;;;;38.83;16.47;;;-4.20;99.90;;;;;;5028491;28;20061;-65
2022/12/13 00:23:20;;;;;;;41.93;16.90;;;-4.20;99.90;;;;;;5031481;28;20492;-64
2022/12/13 00:25:46;;;;;;;40.80;16.50;;;-4.30;99.90;;;;;;5031670;28;20037;-65
2022/12/13 00:28:12;;;;;;;39.53;16.40;;;-4.40;99.90;;;;;;5028684;28;20033;-64
2022/12/13 00:30:38;;;;;;;44.37;17.90;;;-4.40;99.90;;;;;;5005442;28;20046;-64
2022/12/13 00:33:05;;;;;;;39.23;16.90;;;-4.40;99.90;;;;;;5025026;28;20030;-64
2022/12/13 00:35:38;;;;;;;41.50;17.30;;;-4.40;99.90;;;;;;5012283;28;20025;-63
2022/12/13 00:38:04;;;;;;;33.73;12.73;;;-4.40;99.90;;;;;;5011582;28;20120;-63
2022/12/13 00:40:29;;;;;;;44.30;16.93;;;-4.40;99.90;;;;;;5032092;28;20112;-65
2022/12/13 00:42:55;;;;;;;46.10;18.10;;;-4.50;99.90;;;;;;5030375;28;20025;-65
2022/12/13 00:45:20;;;;;;;39.37;16.63;;;-4.50;99.90;;;;;;5012535;28;20032;-64
2022/12/13 00:47:46;;;;;;;45.73;16.53;;;-4.60;99.90;;;;;;5029562;28;20018;-64
2022/12/13 00:50:11;;;;;;;49.80;17.97;;;-4.60;99.90;;;;;;5032171;28;20096;-65
2022/12/13 00:52:37;;;;;;;48.57;17.87;;;-4.50;99.90;;;;;;5032480;28;20111;-64
2022/12/13 00:55:03;;;;;;;42.20;17.07;;;-4.60;99.90;;;;;;5029140;28;20029;-63
2022/12/13 00:57:28;;;;;;;52.57;16.87;;;-4.60;99.90;;;;;;5028707;28;20900;-64
2022/12/13 00:59:54;;;;;;;45.00;17.57;;;-4.60;99.90;;;;;;5028089;28;20036;-65
2022/12/13 01:02:20;;;;;;;47.50;16.70;;;-4.60;99.90;;;;;;5023069;28;20025;-64
2022/12/13 01:04:49;;;;;;;50.03;18.33;;;-4.60;99.90;;;;;;5031964;28;20399;-65
2022/12/13 01:07:14;;;;;;;40.57;16.43;;;-4.50;99.90;;;;;;5034147;28;20025;-64
2022/12/13 01:09:41;;;;;;;52.27;17.37;;;-4.60;99.90;;;;;;5029860;28;20021;-65
2022/12/13 01:12:07;;;;;;;50.27;18.57;;;-4.60;99.90;;;;;;5021013;28;20666;-64
2022/12/13 01:14:38;;;;;;;45.87;18.13;;;-4.60;99.90;;;;;;5001173;28;20038;-62
2022/12/13 01:17:05;;;;;;;43.27;16.10;;;-4.70;99.90;;;;;;5016262;28;20033;-64
2022/12/13 01:19:31;;;;;;;52.83;18.77;;;-4.60;99.90;;;;;;5023004;28;20133;-63
2022/12/13 01:22:02;;;;;;;42.93;16.47;;;-4.70;99.90;;;;;;5020263;28;20030;-63
2022/12/13 01:24:29;;;;;;;42.80;17.63;;;-4.70;99.90;;;;;;5001696;28;20059;-64
2022/12/13 01:26:55;;;;;;;38.73;16.87;;;-4.70;99.90;;;;;;5016116;28;20030;-65
2022/12/13 01:29:22;;;;;;;56.37;19.13;;;-4.70;99.90;;;;;;4988507;28;20068;-64
2022/12/13 01:31:48;;;;;;;46.53;17.60;;;-4.80;99.90;;;;;;5008763;28;20527;-64
2022/12/13 01:34:17;;;;;;;50.80;17.93;;;-4.80;99.90;;;;;;5021069;28;20083;-66
2022/12/13 01:36:44;;;;;;;49.83;18.63;;;-4.80;99.90;;;;;;5020372;28;20127;-65
2022/12/13 01:39:11;;;;;;;49.83;19.27;;;-4.80;99.90;;;;;;5019318;28;20034;-65
2022/12/13 01:41:37;;;;;;;41.43;16.70;;;-4.80;99.90;;;;;;5022625;28;20044;-65
2022/12/13 01:44:04;;;;;;;44.53;17.90;;;-4.80;99.90;;;;;;5020818;28;20038;-65
2022/12/13 01:46:33;;;;;;;52.33;19.07;;;-4.80;99.90;;;;;;5021104;28;21459;-64
2022/12/13 01:49:07;;;;;;;46.40;17.13;;;-4.80;99.90;;;;;;5024908;28;20091;-64
2022/12/13 01:51:45;;;;;;;47.23;16.90;;;-4.70;99.90;;;;;;5025549;28;20029;-65
2022/12/13 01:54:15;;;;;;;49.93;19.80;;;-4.80;99.90;;;;;;5024478;28;20029;-64
2022/12/13 01:56:45;;;;;;;49.33;17.87;;;-4.80;99.90;;;;;;5026884;28;20084;-64
2022/12/13 01:59:12;;;;;;;36.07;15.97;;;-4.70;99.90;;;;;;5028965;28;20032;-64
2022/12/13 02:01:38;;;;;;;38.87;16.43;;;-4.70;99.90;;;;;;5025339;28;20021;-64
2022/12/13 02:04:05;;;;;;;43.47;15.40;;;-4.70;99.90;;;;;;5029174;28;20029;-65
2022/12/13 02:06:37;;;;;;;39.70;16.40;;;-4.70;99.90;;;;;;5033485;28;20053;-64
2022/12/13 02:09:06;;;;;;;42.90;17.30;;;-4.80;99.90;;;;;;5024208;28;20028;-64
2022/12/13 02:11:33;;;;;;;53.30;18.83;;;-4.80;99.90;;;;;;5029940;28;20022;-65
2022/12/13 02:13:58;;;;;;;49.07;16.83;;;-4.90;99.90;;;;;;5029979;28;20079;-64
2022/12/13 02:16:33;;;;;;;44.60;16.03;;;-4.90;99.90;;;;;;5028172;28;20053;-64
2022/12/13 02:19:35;;;;;;;52.20;18.10;;;-5.00;99.90;;;;;;5028162;28;20029;-65
2022/12/13 02:22:12;;;;;;;41.43;14.83;;;-5.00;99.90;;;;;;5029452;28;20451;-65
2022/12/13 02:25:22;;;;;;;47.20;18.23;;;-4.90;99.90;;;;;;5029352;28;20030;-64
2022/12/13 02:28:02;;;;;;;39.53;17.13;;;-4.90;99.90;;;;;;4946304;28;20465;-64
2022/12/13 02:30:41;;;;;;;43.33;18.57;;;-4.80;99.90;;;;;;5008187;28;20385;-64
2022/12/13 02:33:34;;;;;;;47.37;17.07;;;-4.80;99.90;;;;;;5007175;28;20145;-64
2022/12/13 02:35:59;;;;;;;44.63;15.87;;;-4.70;99.90;;;;;;5028301;28;20030;-65
2022/12/13 02:38:40;;;;;;;41.47;16.07;;;-4.70;99.90;;;;;;5011124;28;20032;-64
2022/12/13 02:41:16;;;;;;;42.73;16.17;;;-4.70;99.90;;;;;;5027610;28;20032;-64
2022/12/13 02:43:55;;;;;;;42.13;15.57;;;-4.70;99.90;;;;;;5025422;28;20033;-63
2022/12/13 02:46:24;;;;;;;39.43;16.17;;;-4.70;99.90;;;;;;5030324;28;20018;-64
2022/12/13 02:48:53;;;;;;;39.77;17.17;;;-4.70;99.90;;;;;;5027966;28;20035;-64
2022/12/13 02:51:20;;;;;;;37.57;14.97;;;-4.80;99.90;;;;;;5031898;28;20036;-65
2022/12/13 02:53:46;;;;;;;39.53;15.03;;;-4.80;99.90;;;;;;5023816;28;20112;-64
2022/12/13 02:56:13;;;;;;;49.53;18.20;;;-4.90;99.90;;;;;;5028140;28;20113;-64
2022/12/13 02:58:47;;;;;;;46.03;16.70;;;-5.00;99.90;;;;;;5022739;28;20033;-65
2022/12/13 03:01:39;;;;;;;45.80;16.30;;;-5.00;99.90;;;;;;5025640;28;20044;-65
2022/12/13 03:04:26;;;;;;;40.50;18.07;;;-5.10;99.90;;;;;;5027381;28;20519;-65
2022/12/13 03:06:59;;;;;;;44.07;16.87;;;-5.20;99.90;;;;;;5024003;28;20061;-65
2022/12/13 03:09:46;;;;;;;42.58;17.35;;;-5.20;99.90;;;;;;5025727;28;20113;-65
2022/12/13 03:15:24;;;;;;;44.63;15.80;;;-5.00;99.90;;;;;;5026540;28;20107;-64
2022/12/13 03:17:53;;;;;;;42.83;16.47;;;-4.90;99.90;;;;;;5025803;28;20029;-65
2022/12/13 03:20:24;;;;;;;44.33;18.23;;;-4.90;99.90;;;;;;5025577;28;20109;-65
2022/12/13 03:22:51;;;;;;;50.67;17.60;;;-4.90;99.90;;;;;;5028585;28;20033;-64
2022/12/13 03:25:17;;;;;;;40.50;15.47;;;-5.00;99.90;;;;;;5029080;28;20128;-65
2022/12/13 03:27:43;;;;;;;50.83;17.40;;;-5.00;99.90;;;;;;5011881;28;20417;-65
2022/12/13 03:30:09;;;;;;;42.73;17.60;;;-5.10;99.90;;;;;;5017006;28;20042;-65
2022/12/13 03:32:34;;;;;;;45.53;16.87;;;-5.10;99.90;;;;;;5029225;28;20718;-64
2022/12/13 03:35:00;;;;;;;43.43;17.40;;;-5.10;99.90;;;;;;5028780;28;20109;-65
2022/12/13 03:37:26;;;;;;;37.33;15.30;;;-5.00;99.90;;;;;;5029543;28;20487;-65
2022/12/13 03:39:52;;;;;;;44.83;17.97;;;-5.00;99.90;;;;;;5028990;28;20037;-65
2022/12/13 03:42:17;;;;;;;44.83;15.90;;;-5.10;99.90;;;;;;5027467;28;20038;-65
2022/12/13 03:44:43;;;;;;;48.33;16.90;;;-5.10;99.90;;;;;;5027960;28;20617;-59
2022/12/13 03:47:09;;;;;;;39.10;15.33;;;-5.10;99.90;;;;;;5028508;28;20406;-64
2022/12/13 03:49:34;;;;;;;38.90;15.80;;;-5.20;99.90;;;;;;5027238;28;20110;-65
2022/12/13 03:52:00;;;;;;;51.50;18.10;;;-5.20;99.90;;;;;;5027878;28;20027;-64
2022/12/13 03:54:25;;;;;;;45.90;18.07;;;-5.30;99.90;;;;;;5028523;28;20026;-64
2022/12/13 03:56:51;;;;;;;45.43;17.73;;;-5.40;99.90;;;;;;5029244;28;20029;-65
2022/12/13 03:59:16;;;;;;;50.37;17.60;;;-5.40;99.90;;;;;;5027127;28;20553;-65
2022/12/13 04:01:42;;;;;;;50.07;16.97;;;-5.50;99.90;;;;;;5010211;28;20037;-63
2022/12/13 04:04:08;;;;;;;47.37;17.07;;;-5.50;99.90;;;;;;5032670;28;20082;-64
2022/12/13 04:06:33;;;;;;;50.50;18.60;;;-5.50;99.90;;;;;;5032392;28;20021;-65
2022/12/13 04:08:59;;;;;;;43.53;17.40;;;-5.60;99.90;;;;;;5028231;28;20030;-64
2022/12/13 04:14:09;;;;;;;42.20;16.23;;;-5.70;99.90;;;;;;5026074;28;20040;-65
2022/12/13 04:16:35;;;;;;;41.33;16.93;;;-5.80;99.90;;;;;;5029348;28;20064;-65
2022/12/13 04:19:00;;;;;;;38.37;16.20;;;-5.80;99.90;;;;;;5026520;28;20059;-65
2022/12/13 04:21:26;;;;;;;42.93;16.40;;;-5.80;99.90;;;;;;5032669;28;20021;-65
2022/12/13 04:23:51;;;;;;;55.20;19.07;;;-5.80;99.90;;;;;;5032733;28;20029;-65
2022/12/13 04:26:17;;;;;;;53.23;18.03;;;-5.70;99.90;;;;;;5032787;28;20034;-65
2022/12/13 04:28:42;;;;;;;46.63;17.10;;;-5.60;99.90;;;;;;5031402;28;20482;-60
2022/12/13 04:31:08;;;;;;;48.07;16.50;;;-5.60;99.90;;;;;;5016506;28;20045;-64
2022/12/13 04:33:35;;;;;;;45.07;17.50;;;-5.60;99.90;;;;;;5030778;28;20104;-65
2022/12/13 04:36:00;;;;;;;42.00;16.33;;;-5.50;99.90;;;;;;5032447;28;20025;-65
2022/12/13 04:38:26;;;;;;;49.27;17.40;;;-5.60;99.90;;;;;;5031993;28;20017;-65
2022/12/13 04:40:51;;;;;;;37.83;17.63;;;-5.60;99.90;;;;;;5030034;28;20095;-65
2022/12/13 04:43:17;;;;;;;53.53;16.97;;;-5.70;99.90;;;;;;5029420;28;20041;-65
2022/12/13 04:45:43;;;;;;;47.77;17.07;;;-5.70;99.90;;;;;;5012366;28;20589;-65
2022/12/13 04:48:08;;;;;;;50.23;18.30;;;-5.70;99.90;;;;;;5026609;28;20073;-64
2022/12/13 04:50:34;;;;;;;50.37;17.97;;;-5.70;99.90;;;;;;5030618;28;20032;-65
2022/12/13 04:52:59;;;;;;;48.33;17.63;;;-5.70;99.90;;;;;;5031201;28;20033;-65
2022/12/13 04:55:25;;;;;;;50.57;15.23;;;-5.70;99.90;;;;;;5026053;28;20025;-65
2022/12/13 04:57:51;;;;;;;44.37;15.73;;;-5.60;99.90;;;;;;5010222;28;20037;-64
2022/12/13 05:00:16;;;;;;;47.43;15.80;;;-5.60;99.90;;;;;;5030574;28;20039;-64
2022/12/13 05:02:42;;;;;;;49.37;17.47;;;-5.60;99.90;;;;;;5030925;28;20056;-63
2022/12/13 05:05:08;;;;;;;36.43;14.60;;;-5.60;99.90;;;;;;5011345;28;20410;-64
2022/12/13 05:07:34;;;;;;;46.40;17.10;;;-5.70;99.90;;;;;;5030491;28;20029;-64
2022/12/13 05:10:00;;;;;;;50.00;18.50;;;-5.70;99.90;;;;;;5031123;28;20052;-63
2022/12/13 05:12:26;;;;;;;52.10;17.40;;;-5.70;99.90;;;;;;5032380;28;20021;-64
2022/12/13 05:14:52;;;;;;;52.77;16.37;;;-5.70;99.90;;;;;;5031109;28;20561;-64
2022/12/13 05:17:18;;;;;;;48.93;18.63;;;-5.70;99.90;;;;;;5031031;28;20099;-64
2022/12/13 05:19:44;;;;;;;38.23;15.43;;;-5.70;99.90;;;;;;5012195;28;20733;-64
2022/12/13 05:22:15;;;;;;;45.70;15.23;;;-5.70;99.90;;;;;;5031959;28;20029;-64
2022/12/13 05:24:42;;;;;;;53.57;18.00;;;-5.70;99.90;;;;;;5027751;28;20053;-64
2022/12/13 05:27:08;;;;;;;50.13;16.03;;;-5.70;99.90;;;;;;5026577;28;20545;-64
2022/12/13 05:29:35;;;;;;;45.93;16.67;;;-5.60;99.90;;;;;;5012332;28;20021;-64
2022/12/13 05:32:00;;;;;;;42.77;17.00;;;-5.70;99.90;;;;;;5028102;28;20044;-65
2022/12/13 05:34:26;;;;;;;49.27;16.40;;;-5.70;99.90;;;;;;5010745;28;20029;-64
2022/12/13 05:36:52;;;;;;;43.60;16.10;;;-5.80;99.90;;;;;;5028684;28;20041;-64
2022/12/13 05:39:18;;;;;;;44.63;16.47;;;-5.80;99.90;;;;;;5029419;28;20495;-64
2022/12/13 05:41:43;;;;;;;52.57;17.77;;;-5.70;99.90;;;;;;5030048;28;20056;-65
2022/12/13 05:44:09;;;;;;;44.73;16.00;;;-5.70;99.90;;;;;;5028920;28;20040;-64
2022/12/13 05:46:35;;;;;;;39.40;16.47;;;-5.70;99.90;;;;;;5027805;28;20119;-64
2022/12/13 05:49:01;;;;;;;40.93;15.93;;;-5.80;99.90;;;;;;5028350;28;20483;-64
2022/12/13 05:51:26;;;;;;;44.23;16.50;;;-5.80;99.90;;;;;;5028705;28;20113;-64
2022/12/13 05:53:52;;;;;;;44.73;17.03;;;-5.80;99.90;;;;;;5011561;28;20057;-64
2022/12/13 05:56:18;;;;;;;42.10;16.20;;;-5.80;99.90;;;;;;5029426;28;20034;-65
2022/12/13 05:58:43;;;;;;;38.60;14.87;;;-5.90;99.90;;;;;;5028113;28;20033;-63
2022/12/13 06:01:13;;;;;;;51.80;16.17;;;-5.90;99.90;;;;;;5028649;28;20029;-65
2022/12/13 06:03:39;;;;;;;43.40;16.27;;;-5.90;99.90;;;;;;5026064;28;20034;-65
2022/12/13 06:06:07;;;;;;;43.87;16.37;;;-5.80;99.90;;;;;;5030455;28;20057;-65
2022/12/13 06:08:33;;;;;;;45.20;15.43;;;-5.80;99.90;;;;;;5029026;28;20041;-65
2022/12/13 06:11:01;;;;;;;40.53;14.77;;;-5.80;99.90;;;;;;5029546;28;20116;-64
2022/12/13 06:13:27;;;;;;;44.20;16.30;;;-5.80;99.90;;;;;;5029605;28;20513;-65
2022/12/13 06:15:53;;;;;;;41.63;16.77;;;-5.80;99.90;;;;;;5022058;28;20108;-64
2022/12/13 06:18:19;;;;;;;41.80;14.83;;;-5.80;99.90;;;;;;5025921;28;20025;-63
2022/12/13 06:20:54;;;;;;;41.80;14.30;;;-5.80;99.90;;;;;;5023539;28;20480;-62
2022/12/13 06:23:19;;;;;;;39.23;14.13;;;-5.90;99.90;;;;;;5009322;28;20080;-65
2022/12/13 06:25:45;;;;;;;38.73;15.73;;;-5.90;99.90;;;;;;5021589;28;20037;-64
2022/12/13 06:28:10;;;;;;;42.93;15.43;;;-5.90;99.90;;;;;;5008065;28;20076;-64
2022/12/13 06:30:36;;;;;;;36.33;15.77;;;-6.00;99.90;;;;;;5007358;28;20117;-64
2022/12/13 06:33:02;;;;;;;42.73;14.97;;;-6.00;99.90;;;;;;5008297;28;20032;-64
2022/12/13 06:35:28;;;;;;;42.67;16.03;;;-6.00;99.90;;;;;;5025973;28;20033;-64
2022/12/13 06:37:53;;;;;;;42.07;16.73;;;-5.90;99.90;;;;;;5029634;28;20083;-65
2022/12/13 06:40:19;;;;;;;50.40;15.03;;;-6.00;99.90;;;;;;5028518;28;20033;-64
2022/12/13 06:42:44;;;;;;;44.70;14.23;;;-6.10;99.90;;;;;;5027401;28;20033;-62
2022/12/13 06:45:10;;;;;;;43.40;16.30;;;-6.10;99.90;;;;;;5029659;28;20037;-64
2022/12/13 06:47:36;;;;;;;37.50;14.33;;;-6.10;99.90;;;;;;5029792;28;20029;-64
2022/12/13 06:50:01;;;;;;;46.13;15.70;;;-6.10;99.90;;;;;;5011752;28;20380;-65
2022/12/13 06:52:27;;;;;;;39.10;15.00;;;-6.20;99.90;;;;;;5029958;28;20036;-64
2022/12/13 06:54:53;;;;;;;41.80;15.23;;;-6.20;99.90;;;;;;5010193;28;20546;-64
2022/12/13 06:57:18;;;;;;;38.60;15.07;;;-6.20;99.90;;;;;;5024539;28;20060;-64
2022/12/13 06:59:44;;;;;;;40.00;15.43;;;-6.20;99.90;;;;;;5027076;28;20030;-65
2022/12/13 07:02:10;;;;;;;47.90;16.37;;;-6.20;99.90;;;;;;5028713;28;20037;-64
2022/12/13 07:04:35;;;;;;;41.70;15.60;;;-6.10;99.90;;;;;;5010138;28;20113;-65
2022/12/13 07:07:01;;;;;;;38.23;16.23;;;-6.10;99.90;;;;;;5030146;28;20030;-65
2022/12/13 07:09:28;;;;;;;38.23;13.70;;;-6.10;99.90;;;;;;5027359;28;20026;-64
2022/12/13 07:11:54;;;;;;;40.50;15.13;;;-6.10;99.90;;;;;;5029582;28;20048;-64
2022/12/13 07:14:19;;;;;;;37.67;14.03;;;-6.10;99.90;;;;;;5029178;28;20112;-64
2022/12/13 07:16:45;;;;;;;44.83;14.93;;;-6.10;99.90;;;;;;5028338;28;20040;-63
2022/12/13 07:19:10;;;;;;;42.60;15.17;;;-6.10;99.90;;;;;;5028258;28;20505;-65
2022/12/13 07:21:37;;;;;;;40.23;15.03;;;-6.10;99.90;;;;;;5028470;28;20021;-64
2022/12/13 07:24:03;;;;;;;35.23;13.80;;;-6.10;99.90;;;;;;5028095;28;20415;-64
2022/12/13 07:26:29;;;;;;;36.37;13.73;;;-6.10;99.90;;;;;;5026336;28;20025;-64
2022/12/13 07:28:55;;;;;;;35.70;13.40;;;-6.20;99.90;;;;;;5027856;28;20041;-64
2022/12/13 07:31:21;;;;;;;40.97;14.10;;;-6.20;99.90;;;;;;5011072;28;20069;-64
2022/12/13 07:33:47;;;;;;;39.40;14.43;;;-6.20;99.90;;;;;;5027004;28;20456;-64
2022/12/13 07:36:19;;;;;;;41.57;15.40;;;-6.30;99.90;;;;;;5027135;28;20040;-65
2022/12/13 07:38:50;;;;;;;41.27;15.23;;;-6.30;99.90;;;;;;5027386;28;20116;-64
2022/12/13 07:41:15;;;;;;;37.27;13.70;;;-6.30;99.90;;;;;;5026296;28;20410;-64
2022/12/13 07:43:41;;;;;;;40.73;14.23;;;-6.30;99.90;;;;;;5028752;28;20029;-65
2022/12/13 07:46:07;;;;;;;43.60;14.27;;;-6.30;99.90;;;;;;5028153;28;20462;-65
2022/12/13 07:48:33;;;;;;;40.70;14.73;;;-6.30;99.90;;;;;;5001914;28;20490;-65
2022/12/13 07:51:03;;;;;;;38.00;14.77;;;-6.30;99.90;;;;;;5028817;28;20458;-64
2022/12/13 07:53:29;;;;;;;41.60;13.70;;;-6.20;99.90;;;;;;5029990;28;20040;-65
2022/12/13 07:55:55;;;;;;;48.43;17.13;;;-6.10;99.90;;;;;;5032046;28;20033;-64
2022/12/13 07:58:21;;;;;;;38.37;14.60;;;-6.00;99.90;;;;;;5028643;28;20037;-64
2022/12/13 08:00:47;;;;;;;44.00;14.20;;;-5.90;99.90;;;;;;5032885;28;20029;-59
2022/12/13 08:03:14;;;;;;;40.20;12.90;;;-5.80;99.90;;;;;;5024536;28;20053;-62
2022/12/13 08:05:40;;;;;;;35.60;13.60;;;-5.60;99.90;;;;;;5032326;28;20475;-64
2022/12/13 08:08:08;;;;;;;40.57;13.90;;;-5.60;99.90;;;;;;5034918;28;20104;-65
2022/12/13 08:10:34;;;;;;;30.93;13.23;;;-5.50;99.90;;;;;;5031192;28;20033;-65
2022/12/13 08:13:03;;;;;;;32.43;13.50;;;-5.40;99.90;;;;;;5030627;28;20045;-65
2022/12/13 08:15:29;;;;;;;31.93;12.37;;;-5.30;99.90;;;;;;5029558;28;20541;-64
2022/12/13 08:17:56;;;;;;;38.60;14.00;;;-5.30;99.90;;;;;;5010129;28;20040;-64
2022/12/13 08:20:22;;;;;;;41.17;14.13;;;-5.30;99.90;;;;;;5030535;28;20100;-64
2022/12/13 08:22:58;;;;;;;41.03;13.80;;;-5.20;99.90;;;;;;5030463;28;20042;-63
2022/12/13 08:25:24;;;;;;;33.13;12.27;;;-5.20;99.90;;;;;;5028301;28;20190;-65
2022/12/13 08:27:50;;;;;;;41.17;14.23;;;-5.10;99.90;;;;;;5031911;28;20380;-65
2022/12/13 08:30:16;;;;;;;33.17;13.53;;;-5.10;99.90;;;;;;5012339;28;20099;-65
2022/12/13 08:32:42;;;;;;;36.67;12.83;;;-5.10;99.90;;;;;;5034226;28;20030;-65
2022/12/13 08:35:08;;;;;;;37.33;12.57;;;-5.00;99.90;;;;;;5029258;28;20034;-65
2022/12/13 08:37:33;;;;;;;32.43;13.97;;;-5.00;99.90;;;;;;5031702;28;20087;-64
2022/12/13 08:39:59;;;;;;;34.23;13.30;;;-4.90;99.90;;;;;;5031918;28;20709;-64
2022/12/13 08:42:25;;;;;;;36.47;12.50;;;-4.90;99.90;;;;;;5030855;28;20065;-65
2022/12/13 08:44:52;;;;;;;35.40;13.07;;;-4.80;99.90;;;;;;5030394;28;20465;-65
2022/12/13 08:47:20;;;;;;;26.47;12.07;;;-4.80;99.90;;;;;;5031978;28;20120;-63
2022/12/13 08:49:46;;;;;;;37.90;13.43;;;-4.80;99.90;;;;;;5012689;28;20025;-65
2022/12/13 08:52:11;;;;;;;31.33;13.67;;;-4.70;99.90;;;;;;5030205;28;20037;-64
2022/12/13 08:54:37;;;;;;;31.67;13.97;;;-4.60;99.90;;;;;;5031682;28;20079;-64
2022/12/13 08:57:02;;;;;;;32.67;14.07;;;-4.60;99.90;;;;;;5030381;28;20072;-64
2022/12/13 08:59:28;;;;;;;37.23;14.03;;;-4.60;99.90;;;;;;5029341;28;20052;-64
2022/12/13 09:01:54;;;;;;;29.47;12.60;;;-4.50;99.90;;;;;;5011069;28;20034;-64
2022/12/13 09:04:19;;;;;;;30.97;13.70;;;-4.50;99.90;;;;;;5029954;28;20030;-65
2022/12/13 09:06:45;;;;;;;33.43;13.67;;;-4.50;99.90;;;;;;5031599;28;20025;-61
2022/12/13 09:09:11;;;;;;;40.17;15.13;;;-4.40;99.90;;;;;;5029908;28;20033;-64
2022/12/13 09:11:39;;;;;;;29.40;11.80;;;-4.40;99.90;;;;;;5030535;28;20172;-63
2022/12/13 09:14:05;;;;;;;36.03;14.33;;;-4.30;99.90;;;;;;5030634;28;20029;-64
2022/12/13 09:16:35;;;;;;;39.93;14.73;;;-4.30;99.90;;;;;;5029410;28;20543;-64
2022/12/13 09:19:01;;;;;;;30.07;12.30;;;-4.20;99.90;;;;;;5029477;28;20121;-64
2022/12/13 09:21:27;;;;;;;34.57;13.00;;;-4.20;99.90;;;;;;5029878;28;20026;-64
2022/12/13 09:23:53;;;;;;;30.77;13.77;;;-4.20;99.90;;;;;;5029393;28;20037;-64
2022/12/13 09:26:19;;;;;;;35.63;13.73;;;-4.10;99.90;;;;;;5028757;28;20029;-65
2022/12/13 09:28:45;;;;;;;35.57;13.50;;;-4.10;99.90;;;;;;5028825;28;20501;-65
2022/12/13 09:31:14;;;;;;;36.07;13.03;;;-4.00;99.90;;;;;;5012213;28;20049;-64
2022/12/13 09:33:40;;;;;;;32.20;13.07;;;-4.00;99.90;;;;;;5028571;28;20043;-65
2022/12/13 09:36:07;;;;;;;35.70;14.47;;;-3.90;99.90;;;;;;5007231;28;20064;-65
2022/12/13 09:38:34;;;;;;;32.23;13.00;;;-3.90;99.90;;;;;;5025603;28;20084;-64
2022/12/13 09:41:08;;;;;;;32.27;12.87;;;-3.80;99.90;;;;;;5025401;28;20138;-65
2022/12/13 09:43:35;;;;;;;38.90;13.37;;;-3.80;99.90;;;;;;5029734;28;20045;-65
2022/12/13 09:46:06;;;;;;;40.93;13.97;;;-3.60;99.90;;;;;;5031621;28;20037;-65
2022/12/13 09:48:32;;;;;;;38.40;13.90;;;-3.60;99.90;;;;;;5029993;28;20021;-62
2022/12/13 09:50:58;;;;;;;37.57;13.87;;;-3.40;99.90;;;;;;5031024;28;20040;-64
2022/12/13 09:53:24;;;;;;;32.30;12.80;;;-3.40;99.90;;;;;;5028959;28;20475;-65
2022/12/13 09:55:51;;;;;;;35.73;14.60;;;-3.30;99.90;;;;;;5028960;28;20028;-65
2022/12/13 09:58:20;;;;;;;29.97;13.97;;;-3.20;99.90;;;;;;5028413;28;20029;-65
2022/12/13 10:00:48;;;;;;;35.43;13.87;;;-3.10;99.90;;;;;;5028724;28;20053;-60
2022/12/13 10:03:17;;;;;;;35.37;14.23;;;-3.00;99.90;;;;;;5008043;28;20041;-65
2022/12/13 10:06:12;;;;;;;35.80;13.20;;;-2.90;99.90;;;;;;5028266;28;20033;-65
2022/12/13 10:08:43;;;;;;;28.23;14.07;;;-2.80;99.90;;;;;;5017448;28;20403;-65
2022/12/13 10:11:13;;;;;;;30.80;12.37;;;-2.80;99.90;;;;;;5025888;28;20039;-65
2022/12/13 10:13:49;;;;;;;28.30;12.10;;;-2.70;99.90;;;;;;5022499;28;20033;-65
2022/12/13 10:16:30;;;;;;;35.70;12.57;;;-2.70;99.90;;;;;;5027990;28;20025;-65
2022/12/13 10:18:56;;;;;;;36.13;12.57;;;-2.70;99.90;;;;;;5010298;28;20025;-65
2022/12/13 10:21:38;;;;;;;33.33;12.90;;;-2.60;99.90;;;;;;5029834;28;20048;-64
2022/12/13 10:24:17;;;;;;;33.67;13.20;;;-2.50;99.90;;;;;;5027304;28;20033;-65
2022/12/13 10:26:43;;;;;;;30.63;12.63;;;-2.40;99.90;;;;;;5027882;28;20027;-65
2022/12/13 10:29:09;;;;;;;26.50;11.13;;;-2.30;99.90;;;;;;5027578;28;20384;-65
2022/12/13 10:31:40;;;;;;;30.20;12.67;;;-2.30;99.90;;;;;;5010414;28;20510;-65
2022/12/13 10:34:25;;;;;;;24.23;10.63;;;-2.20;99.90;;;;;;5025513;28;20033;-64
2022/12/13 10:36:52;;;;;;;26.30;11.77;;;-2.20;99.90;;;;;;5010317;28;20029;-64
2022/12/13 10:39:38;;;;;;;34.40;11.40;;;-2.20;99.90;;;;;;5028967;28;20026;-60
2022/12/13 10:42:11;;;;;;;29.63;11.47;;;-2.10;99.90;;;;;;5029302;28;20462;-65
2022/12/13 10:44:37;;;;;;;28.53;11.23;;;-2.10;99.90;;;;;;5027308;28;20117;-65
2022/12/13 10:47:08;;;;;;;24.33;9.90;;;-2.10;99.90;;;;;;5028764;28;20109;-65
2022/12/13 10:49:54;;;;;;;22.13;10.30;;;-2.00;99.90;;;;;;5009871;28;20051;-66
2022/12/13 10:52:31;;;;;;;24.43;10.13;;;-2.00;99.90;;;;;;5010313;28;20494;-64
2022/12/13 10:55:03;;;;;;;25.57;12.00;;;-2.00;99.90;;;;;;5028565;28;20055;-65
2022/12/13 10:57:29;;;;;;;29.83;9.70;;;-1.90;99.90;;;;;;5027949;28;20021;-65
2022/12/13 10:59:55;;;;;;;28.47;11.07;;;-1.80;99.90;;;;;;5022945;28;20096;-65
2022/12/13 11:02:34;;;;;;;28.70;9.63;;;-1.70;99.90;;;;;;5024038;28;20025;-65
2022/12/13 11:05:20;;;;;;;22.07;8.20;;;-1.60;99.90;;;;;;5026855;28;20045;-65
2022/12/13 11:07:45;;;;;;;22.47;9.20;;;-1.50;99.90;;;;;;5029491;28;20033;-64
2022/12/13 11:10:15;;;;;;;23.47;9.57;;;-1.40;99.90;;;;;;5025034;28;20088;-64
2022/12/13 11:12:41;;;;;;;22.10;8.60;;;-1.20;99.90;;;;;;5022350;28;20086;-65
2022/12/13 11:15:14;;;;;;;19.10;8.47;;;-1.10;99.90;;;;;;5028389;28;20117;-64
2022/12/13 11:17:50;;;;;;;20.73;8.77;;;-1.10;99.90;;;;;;5021413;28;20029;-63
2022/12/13 11:20:52;;;;;;;19.63;8.43;;;-1.00;99.90;;;;;;5028576;28;20037;-63
2022/12/13 11:23:22;;;;;;;15.60;7.00;;;-1.00;99.90;;;;;;5018092;28;20029;-64
2022/12/13 11:25:53;;;;;;;19.03;7.80;;;-1.00;99.90;;;;;;5025191;28;20021;-64
2022/12/13 11:28:47;;;;;;;18.63;6.90;;;-1.10;99.90;;;;;;5033095;28;20395;-64
2022/12/13 11:31:21;;;;;;;15.73;7.38;;;-1.10;99.90;;;;;;5011723;28;20075;-63
2022/12/13 11:33:59;;;;;;;21.17;8.67;;;-1.10;99.90;;;;;;5028509;28;20024;-65
2022/12/13 11:36:35;;;;;;;19.63;8.30;;;-1.20;99.90;;;;;;5034688;28;20022;-65
2022/12/13 11:39:27;;;;;;;21.73;8.67;;;-1.20;99.90;;;;;;5035168;28;20098;-64
2022/12/13 11:42:14;;;;;;;18.50;7.70;;;-1.20;99.90;;;;;;5027153;28;20032;-65
2022/12/13 11:45:06;;;;;;;17.40;7.90;;;-1.10;99.90;;;;;;5034581;28;20033;-65
2022/12/13 11:47:57;;;;;;;19.53;8.90;;;-1.10;99.90;;;;;;5034615;28;20040;-65
2022/12/13 11:50:30;;;;;;;22.60;8.70;;;-1.00;99.90;;;;;;5035940;28;20036;-64
2022/12/13 11:53:17;;;;;;;24.27;7.97;;;-0.90;99.90;;;;;;5030528;28;20030;-64
2022/12/13 11:56:10;;;;;;;24.10;9.73;;;-0.90;99.90;;;;;;5030624;28;20040;-65
2022/12/13 11:58:45;;;;;;;17.17;7.87;;;-0.90;99.90;;;;;;5034390;28;20423;-64
2022/12/13 12:01:23;;;;;;;23.50;9.13;;;-0.90;99.90;;;;;;5034636;28;20060;-65
2022/12/13 12:04:02;;;;;;;18.53;7.93;;;-0.90;99.90;;;;;;5033547;28;20100;-65
2022/12/13 12:06:35;;;;;;;21.67;7.97;;;-0.90;99.90;;;;;;5034282;28;20105;-66
2022/12/13 12:09:06;;;;;;;20.85;8.85;;;-0.90;99.90;;;;;;5033951;28;20036;-65
2022/12/13 12:11:41;;;;;;;21.83;7.37;;;-0.90;99.90;;;;;;5034878;28;20030;-65
2022/12/13 12:14:46;;;;;;;18.37;8.37;;;-1.00;99.90;;;;;;5012166;28;20057;-66
2022/12/13 12:17:12;;;;;;;;;;;-1.00;99.90;;;;;;4960912;28;20032;-65
2022/12/13 12:19:42;;;;;;;19.57;7.70;;;-0.90;99.90;;;;;;5017768;28;19916;-64
2022/12/13 12:22:37;;;;;;;18.27;7.63;;;-1.00;99.90;;;;;;5023479;28;20030;-64
2022/12/13 12:25:21;;;;;;;27.23;8.57;;;-1.00;99.90;;;;;;5034443;28;20029;-65
2022/12/13 12:27:58;;;;;;;19.90;8.50;;;-1.00;99.90;;;;;;5016104;28;20090;-65
2022/12/13 12:30:52;;;;;;;19.00;7.30;;;-1.00;99.90;;;;;;5014225;28;20048;-65
2022/12/13 12:33:45;;;;;;;19.53;7.50;;;-1.00;99.90;;;;;;5033136;28;20018;-65
2022/12/13 12:36:11;;;;;;;19.07;8.97;;;-1.00;99.90;;;;;;5032618;28;20025;-65
2022/12/13 12:38:48;;;;;;;21.23;8.30;;;-1.10;99.90;;;;;;5028433;28;20026;-65
2022/12/13 12:41:37;;;;;;;19.60;8.67;;;-1.00;99.90;;;;;;5031327;28;20100;-65
2022/12/13 12:44:42;;;;;;;18.00;7.50;;;-1.00;99.90;;;;;;5016746;28;20045;-65
2022/12/13 12:47:20;;;;;;;23.08;8.65;;;-1.00;99.90;;;;;;5017061;28;20050;-65